Ciudad Obregón International Airport
MMCN : now visible

Airfield :











YOU CAN JOIN US ON...

 
LOGIN :

Register | Disclaimer

   EN    FR    IT 

 









Legend :    VFR   Marginal VFR   IFR   Intensive IFR   Very Intensive IFR
Visi :
Ceiling :
>= 8 km
>= 3000ft
5 to 8 km
1000 to 3000 ft
1500m to 5 km
500 to 1000 ft
800 to 1500m
200 to 500 ft
< 800m
< 200 ft
Symbols :   Thunderstorms  Fog  Heavy snow  Heavy precipitations  Wind > 20 kt






- Airport Elevation : 243 ft
- IATA code : CEN


MMCN - Ciudad Obregón International

CURRENT METAR :
  • 251745Z 24004KT 10SM FEW200 30/11 A2980 RMK SLP092 8/008 HZY

EXPIRED METARs :
  • 251645Z 13002KT 10SM FEW200 29/15 A2981 RMK 8/008 HZY
  • 251546Z 20004KT 8SM FEW020 BKN200 26/18 A2982 RMK 8/508 HZY

TAF TAF MMCN
Valid from the 25 at 18:00 until the 26 at 18:00 UTC


251651Z 2518/2618 20010KT P6SM SCT020
FM260300 00000KT P6SM SKC
FM261000 00000KT 3SM BR SKC
TEMPO 2612/2615 1/2SM FG VV003
FM261500 00000KT P6SM SKC
MMFR FIR / North America



MET'MAP, your aeronautical weather chart ! - Copyright ORBIFLY December 2007 - Disclaimer

ORBIFLY MET'MAP TEAM :

Programming & Development : Alexandra Zaïnal
Concept & original design : Baudouin d'Aumeries
Assistance for programming : Marc-Olivier Méhu
Technical & hardware support : Manuel Goepfert

Contact : metmap@orbifly.com




SOURCES & CREDITS :

   NOAA       Earth
Advisory